sensor_id;sensor_type;location;lat;lon;timestamp;P1;durP1;ratioP1;P2;durP2;ratioP2
15624;SDS011;7912;51.376;6.126;2023-02-28T00:00:44;7.03;;;4.83;;
15624;SDS011;7912;51.376;6.126;2023-02-28T00:03:11;4.93;;;4.43;;
15624;SDS011;7912;51.376;6.126;2023-02-28T00:05:38;6.50;;;4.23;;
15624;SDS011;7912;51.376;6.126;2023-02-28T00:08:06;5.63;;;4.43;;
15624;SDS011;7912;51.376;6.126;2023-02-28T00:10:34;5.73;;;4.27;;
15624;SDS011;7912;51.376;6.126;2023-02-28T00:13:02;4.90;;;4.33;;
15624;SDS011;7912;51.376;6.126;2023-02-28T00:15:32;5.20;;;4.70;;
15624;SDS011;7912;51.376;6.126;2023-02-28T00:18:00;6.93;;;4.63;;
15624;SDS011;7912;51.376;6.126;2023-02-28T00:20:29;5.50;;;4.70;;
15624;SDS011;7912;51.376;6.126;2023-02-28T00:22:56;5.73;;;4.20;;
15624;SDS011;7912;51.376;6.126;2023-02-28T00:25:26;5.17;;;4.37;;
15624;SDS011;7912;51.376;6.126;2023-02-28T00:27:53;6.27;;;4.70;;
15624;SDS011;7912;51.376;6.126;2023-02-28T00:30:21;6.40;;;4.73;;
15624;SDS011;7912;51.376;6.126;2023-02-28T00:32:50;5.50;;;4.50;;
15624;SDS011;7912;51.376;6.126;2023-02-28T00:35:17;5.03;;;4.53;;
15624;SDS011;7912;51.376;6.126;2023-02-28T00:37:45;6.30;;;4.63;;
15624;SDS011;7912;51.376;6.126;2023-02-28T00:40:14;6.47;;;4.40;;
15624;SDS011;7912;51.376;6.126;2023-02-28T00:42:41;5.27;;;4.53;;
15624;SDS011;7912;51.376;6.126;2023-02-28T00:45:08;6.47;;;4.73;;
15624;SDS011;7912;51.376;6.126;2023-02-28T00:47:36;6.53;;;4.83;;
15624;SDS011;7912;51.376;6.126;2023-02-28T00:50:03;6.23;;;4.67;;
15624;SDS011;7912;51.376;6.126;2023-02-28T00:52:32;7.10;;;5.17;;
15624;SDS011;7912;51.376;6.126;2023-02-28T00:54:59;5.70;;;4.83;;
15624;SDS011;7912;51.376;6.126;2023-02-28T00:57:26;5.33;;;4.83;;
15624;SDS011;7912;51.376;6.126;2023-02-28T00:59:54;5.57;;;5.00;;
15624;SDS011;7912;51.376;6.126;2023-02-28T01:02:21;6.43;;;5.00;;
15624;SDS011;7912;51.376;6.126;2023-02-28T01:04:49;6.77;;;4.80;;
15624;SDS011;7912;51.376;6.126;2023-02-28T01:07:17;8.30;;;5.10;;
15624;SDS011;7912;51.376;6.126;2023-02-28T01:09:44;6.57;;;5.07;;
15624;SDS011;7912;51.376;6.126;2023-02-28T01:12:11;6.63;;;5.33;;
15624;SDS011;7912;51.376;6.126;2023-02-28T01:14:38;8.83;;;5.23;;
15624;SDS011;7912;51.376;6.126;2023-02-28T01:17:06;7.83;;;5.10;;
15624;SDS011;7912;51.376;6.126;2023-02-28T01:19:34;6.43;;;5.00;;
15624;SDS011;7912;51.376;6.126;2023-02-28T01:22:02;6.43;;;5.07;;
15624;SDS011;7912;51.376;6.126;2023-02-28T01:24:31;7.60;;;5.30;;
15624;SDS011;7912;51.376;6.126;2023-02-28T01:26:59;6.00;;;5.10;;
15624;SDS011;7912;51.376;6.126;2023-02-28T01:29:26;5.77;;;4.93;;
15624;SDS011;7912;51.376;6.126;2023-02-28T01:31:54;6.10;;;5.50;;
15624;SDS011;7912;51.376;6.126;2023-02-28T01:34:21;5.97;;;5.00;;
15624;SDS011;7912;51.376;6.126;2023-02-28T01:39:36;8.50;;;5.73;;
15624;SDS011;7912;51.376;6.126;2023-02-28T01:42:03;6.70;;;5.13;;
15624;SDS011;7912;51.376;6.126;2023-02-28T01:48:00;7.03;;;5.30;;
15624;SDS011;7912;51.376;6.126;2023-02-28T01:50:37;7.50;;;5.23;;
15624;SDS011;7912;51.376;6.126;2023-02-28T01:53:13;6.60;;;4.90;;
15624;SDS011;7912;51.376;6.126;2023-02-28T01:55:47;7.27;;;4.90;;
15624;SDS011;7912;51.376;6.126;2023-02-28T01:58:19;7.23;;;5.30;;
15624;SDS011;7912;51.376;6.126;2023-02-28T02:00:46;8.17;;;4.70;;
15624;SDS011;7912;51.376;6.126;2023-02-28T02:03:14;8.43;;;5.17;;
15624;SDS011;7912;51.376;6.126;2023-02-28T02:05:46;5.13;;;4.67;;
15624;SDS011;7912;51.376;6.126;2023-02-28T02:08:21;6.57;;;4.83;;
15624;SDS011;7912;51.376;6.126;2023-02-28T02:10:53;5.40;;;4.50;;
15624;SDS011;7912;51.376;6.126;2023-02-28T02:16:25;5.93;;;4.90;;
15624;SDS011;7912;51.376;6.126;2023-02-28T02:40:30;6.67;;;4.67;;
15624;SDS011;7912;51.376;6.126;2023-02-28T02:43:09;6.20;;;4.77;;
15624;SDS011;7912;51.376;6.126;2023-02-28T02:45:53;5.83;;;5.10;;
15624;SDS011;7912;51.376;6.126;2023-02-28T02:51:24;6.93;;;5.00;;
15624;SDS011;7912;51.376;6.126;2023-02-28T02:53:54;6.63;;;5.20;;
15624;SDS011;7912;51.376;6.126;2023-02-28T02:56:38;7.70;;;5.27;;
15624;SDS011;7912;51.376;6.126;2023-02-28T02:59:11;5.30;;;4.80;;
15624;SDS011;7912;51.376;6.126;2023-02-28T03:01:52;7.43;;;5.17;;
15624;SDS011;7912;51.376;6.126;2023-02-28T03:04:24;6.97;;;5.17;;
15624;SDS011;7912;51.376;6.126;2023-02-28T03:06:57;6.93;;;5.07;;
15624;SDS011;7912;51.376;6.126;2023-02-28T03:09:25;6.70;;;5.03;;
15624;SDS011;7912;51.376;6.126;2023-02-28T03:11:53;6.43;;;4.53;;
15624;SDS011;7912;51.376;6.126;2023-02-28T03:14:39;6.30;;;4.77;;
15624;SDS011;7912;51.376;6.126;2023-02-28T03:18:07;5.13;;;4.63;;
15624;SDS011;7912;51.376;6.126;2023-02-28T03:20:55;5.53;;;4.93;;
15624;SDS011;7912;51.376;6.126;2023-02-28T03:26:45;6.87;;;4.93;;
15624;SDS011;7912;51.376;6.126;2023-02-28T03:29:37;6.83;;;5.20;;
15624;SDS011;7912;51.376;6.126;2023-02-28T03:32:14;6.63;;;4.73;;
15624;SDS011;7912;51.376;6.126;2023-02-28T03:35:02;6.40;;;4.73;;
15624;SDS011;7912;51.376;6.126;2023-02-28T03:37:56;5.70;;;4.60;;
15624;SDS011;7912;51.376;6.126;2023-02-28T03:40:34;6.40;;;4.90;;
15624;SDS011;7912;51.376;6.126;2023-02-28T03:43:09;7.77;;;5.00;;
15624;SDS011;7912;51.376;6.126;2023-02-28T03:45:48;4.67;;;4.20;;
15624;SDS011;7912;51.376;6.126;2023-02-28T03:48:24;8.40;;;5.40;;
15624;SDS011;7912;51.376;6.126;2023-02-28T03:51:16;7.87;;;5.33;;
15624;SDS011;7912;51.376;6.126;2023-02-28T03:53:50;6.07;;;5.47;;
15624;SDS011;7912;51.376;6.126;2023-02-28T03:56:34;8.87;;;6.17;;
15624;SDS011;7912;51.376;6.126;2023-02-28T03:59:31;9.27;;;6.47;;
15624;SDS011;7912;51.376;6.126;2023-02-28T04:02:15;10.53;;;6.90;;
15624;SDS011;7912;51.376;6.126;2023-02-28T04:04:42;7.87;;;5.43;;
15624;SDS011;7912;51.376;6.126;2023-02-28T04:07:12;8.93;;;5.80;;
15624;SDS011;7912;51.376;6.126;2023-02-28T04:09:39;8.87;;;6.57;;
15624;SDS011;7912;51.376;6.126;2023-02-28T04:12:07;8.37;;;5.80;;
15624;SDS011;7912;51.376;6.126;2023-02-28T04:14:35;9.13;;;6.00;;
15624;SDS011;7912;51.376;6.126;2023-02-28T04:17:02;7.20;;;5.90;;
15624;SDS011;7912;51.376;6.126;2023-02-28T04:19:29;7.90;;;6.07;;
15624;SDS011;7912;51.376;6.126;2023-02-28T04:21:56;6.17;;;5.37;;
15624;SDS011;7912;51.376;6.126;2023-02-28T04:24:24;8.80;;;5.60;;
15624;SDS011;7912;51.376;6.126;2023-02-28T04:26:55;7.33;;;5.40;;
15624;SDS011;7912;51.376;6.126;2023-02-28T04:29:25;7.73;;;5.43;;
15624;SDS011;7912;51.376;6.126;2023-02-28T04:31:56;5.67;;;5.03;;
15624;SDS011;7912;51.376;6.126;2023-02-28T04:34:27;7.07;;;5.40;;
15624;SDS011;7912;51.376;6.126;2023-02-28T04:36:57;7.27;;;5.40;;
15624;SDS011;7912;51.376;6.126;2023-02-28T04:39:42;6.83;;;5.20;;
15624;SDS011;7912;51.376;6.126;2023-02-28T04:42:10;6.10;;;4.70;;
15624;SDS011;7912;51.376;6.126;2023-02-28T04:44:38;6.87;;;5.10;;
15624;SDS011;7912;51.376;6.126;2023-02-28T04:47:05;5.67;;;4.73;;
15624;SDS011;7912;51.376;6.126;2023-02-28T04:49:32;5.23;;;4.73;;
15624;SDS011;7912;51.376;6.126;2023-02-28T04:54:46;8.17;;;5.53;;
15624;SDS011;7912;51.376;6.126;2023-02-28T04:57:13;7.07;;;5.17;;
15624;SDS011;7912;51.376;6.126;2023-02-28T04:59:40;7.07;;;5.50;;
15624;SDS011;7912;51.376;6.126;2023-02-28T05:02:07;6.40;;;5.20;;
15624;SDS011;7912;51.376;6.126;2023-02-28T05:04:35;5.70;;;4.77;;
15624;SDS011;7912;51.376;6.126;2023-02-28T05:07:03;7.47;;;5.03;;
15624;SDS011;7912;51.376;6.126;2023-02-28T05:09:30;7.37;;;5.40;;
15624;SDS011;7912;51.376;6.126;2023-02-28T05:11:59;7.20;;;5.10;;
15624;SDS011;7912;51.376;6.126;2023-02-28T05:14:26;7.00;;;5.37;;
15624;SDS011;7912;51.376;6.126;2023-02-28T05:19:39;8.80;;;6.23;;
15624;SDS011;7912;51.376;6.126;2023-02-28T05:22:11;8.00;;;5.70;;
15624;SDS011;7912;51.376;6.126;2023-02-28T05:24:43;9.10;;;6.83;;
15624;SDS011;7912;51.376;6.126;2023-02-28T05:27:10;10.37;;;6.90;;
15624;SDS011;7912;51.376;6.126;2023-02-28T05:29:37;8.70;;;5.90;;
15624;SDS011;7912;51.376;6.126;2023-02-28T05:32:09;8.50;;;6.20;;
15624;SDS011;7912;51.376;6.126;2023-02-28T05:34:38;9.20;;;6.40;;
15624;SDS011;7912;51.376;6.126;2023-02-28T05:37:08;7.03;;;5.53;;
15624;SDS011;7912;51.376;6.126;2023-02-28T05:39:39;9.17;;;6.47;;
15624;SDS011;7912;51.376;6.126;2023-02-28T05:42:07;6.20;;;5.60;;
15624;SDS011;7912;51.376;6.126;2023-02-28T05:44:35;6.57;;;5.93;;
15624;SDS011;7912;51.376;6.126;2023-02-28T05:47:03;7.47;;;5.97;;
15624;SDS011;7912;51.376;6.126;2023-02-28T05:49:30;9.03;;;6.10;;
15624;SDS011;7912;51.376;6.126;2023-02-28T05:51:57;9.73;;;6.57;;
15624;SDS011;7912;51.376;6.126;2023-02-28T05:54:25;8.30;;;6.40;;
15624;SDS011;7912;51.376;6.126;2023-02-28T05:56:52;8.53;;;6.27;;
15624;SDS011;7912;51.376;6.126;2023-02-28T05:59:19;8.87;;;6.30;;
15624;SDS011;7912;51.376;6.126;2023-02-28T06:01:46;7.83;;;5.83;;
15624;SDS011;7912;51.376;6.126;2023-02-28T06:08:00;6.10;;;5.43;;
15624;SDS011;7912;51.376;6.126;2023-02-28T06:10:27;7.40;;;5.77;;
15624;SDS011;7912;51.376;6.126;2023-02-28T06:12:54;7.30;;;5.90;;
15624;SDS011;7912;51.376;6.126;2023-02-28T06:15:21;26.67;;;14.70;;
15624;SDS011;7912;51.376;6.126;2023-02-28T06:17:49;9.10;;;6.20;;
15624;SDS011;7912;51.376;6.126;2023-02-28T06:20:16;24.10;;;20.97;;
15624;SDS011;7912;51.376;6.126;2023-02-28T06:22:43;7.60;;;6.60;;
15624;SDS011;7912;51.376;6.126;2023-02-28T06:25:11;8.50;;;5.83;;
15624;SDS011;7912;51.376;6.126;2023-02-28T06:27:38;6.00;;;5.30;;
15624;SDS011;7912;51.376;6.126;2023-02-28T06:30:06;5.90;;;5.27;;
15624;SDS011;7912;51.376;6.126;2023-02-28T06:32:34;6.83;;;4.77;;
15624;SDS011;7912;51.376;6.126;2023-02-28T06:35:02;5.63;;;4.90;;
15624;SDS011;7912;51.376;6.126;2023-02-28T06:37:31;6.70;;;4.90;;
15624;SDS011;7912;51.376;6.126;2023-02-28T06:39:59;7.20;;;4.60;;
15624;SDS011;7912;51.376;6.126;2023-02-28T06:42:26;6.17;;;5.00;;
15624;SDS011;7912;51.376;6.126;2023-02-28T06:44:55;5.43;;;4.93;;
15624;SDS011;7912;51.376;6.126;2023-02-28T06:47:22;6.33;;;4.90;;
15624;SDS011;7912;51.376;6.126;2023-02-28T06:49:50;5.40;;;4.90;;
15624;SDS011;7912;51.376;6.126;2023-02-28T06:52:17;6.80;;;5.40;;
15624;SDS011;7912;51.376;6.126;2023-02-28T06:54:45;7.17;;;5.53;;
15624;SDS011;7912;51.376;6.126;2023-02-28T06:57:12;5.83;;;4.90;;
15624;SDS011;7912;51.376;6.126;2023-02-28T06:59:39;8.30;;;5.70;;
15624;SDS011;7912;51.376;6.126;2023-02-28T07:02:08;7.53;;;5.33;;
15624;SDS011;7912;51.376;6.126;2023-02-28T07:04:35;5.67;;;4.93;;
15624;SDS011;7912;51.376;6.126;2023-02-28T07:07:02;5.57;;;4.73;;
15624;SDS011;7912;51.376;6.126;2023-02-28T07:09:30;5.00;;;4.47;;
15624;SDS011;7912;51.376;6.126;2023-02-28T07:11:57;8.23;;;4.90;;
15624;SDS011;7912;51.376;6.126;2023-02-28T07:14:24;6.93;;;4.90;;
15624;SDS011;7912;51.376;6.126;2023-02-28T07:16:52;5.20;;;4.70;;
15624;SDS011;7912;51.376;6.126;2023-02-28T07:19:20;5.87;;;4.73;;
15624;SDS011;7912;51.376;6.126;2023-02-28T07:21:47;7.07;;;4.93;;
15624;SDS011;7912;51.376;6.126;2023-02-28T07:24:14;8.53;;;4.90;;
15624;SDS011;7912;51.376;6.126;2023-02-28T07:26:44;5.70;;;5.07;;
15624;SDS011;7912;51.376;6.126;2023-02-28T07:29:11;5.93;;;4.60;;
15624;SDS011;7912;51.376;6.126;2023-02-28T07:31:38;7.70;;;4.63;;
15624;SDS011;7912;51.376;6.126;2023-02-28T07:34:09;6.00;;;5.13;;
15624;SDS011;7912;51.376;6.126;2023-02-28T07:36:36;6.53;;;4.23;;
15624;SDS011;7912;51.376;6.126;2023-02-28T07:39:03;7.00;;;4.53;;
15624;SDS011;7912;51.376;6.126;2023-02-28T07:41:31;4.67;;;3.93;;
15624;SDS011;7912;51.376;6.126;2023-02-28T07:44:00;5.87;;;4.37;;
15624;SDS011;7912;51.376;6.126;2023-02-28T07:46:27;6.53;;;4.20;;
15624;SDS011;7912;51.376;6.126;2023-02-28T07:49:02;5.00;;;4.27;;
15624;SDS011;7912;51.376;6.126;2023-02-28T07:51:30;7.13;;;4.87;;
15624;SDS011;7912;51.376;6.126;2023-02-28T07:53:57;6.37;;;4.63;;
15624;SDS011;7912;51.376;6.126;2023-02-28T07:56:25;6.03;;;4.10;;
15624;SDS011;7912;51.376;6.126;2023-02-28T07:58:53;4.40;;;4.00;;
15624;SDS011;7912;51.376;6.126;2023-02-28T08:01:20;4.73;;;4.17;;
15624;SDS011;7912;51.376;6.126;2023-02-28T08:03:48;6.63;;;3.90;;
15624;SDS011;7912;51.376;6.126;2023-02-28T08:06:19;6.37;;;3.80;;
15624;SDS011;7912;51.376;6.126;2023-02-28T08:08:49;6.67;;;4.30;;
15624;SDS011;7912;51.376;6.126;2023-02-28T08:11:16;4.57;;;3.93;;
15624;SDS011;7912;51.376;6.126;2023-02-28T08:13:44;5.67;;;3.80;;
15624;SDS011;7912;51.376;6.126;2023-02-28T08:16:12;4.20;;;3.83;;
15624;SDS011;7912;51.376;6.126;2023-02-28T08:18:49;5.93;;;3.87;;
15624;SDS011;7912;51.376;6.126;2023-02-28T08:21:18;5.33;;;4.07;;
15624;SDS011;7912;51.376;6.126;2023-02-28T08:23:47;4.27;;;3.67;;
15624;SDS011;7912;51.376;6.126;2023-02-28T08:26:16;5.07;;;3.80;;
15624;SDS011;7912;51.376;6.126;2023-02-28T08:28:44;3.93;;;3.53;;
15624;SDS011;7912;51.376;6.126;2023-02-28T08:31:13;4.63;;;3.40;;
15624;SDS011;7912;51.376;6.126;2023-02-28T08:33:42;4.57;;;3.40;;
15624;SDS011;7912;51.376;6.126;2023-02-28T08:36:16;4.27;;;3.50;;
15624;SDS011;7912;51.376;6.126;2023-02-28T08:38:43;5.67;;;3.50;;
15624;SDS011;7912;51.376;6.126;2023-02-28T08:41:12;3.67;;;3.17;;
15624;SDS011;7912;51.376;6.126;2023-02-28T08:43:40;3.97;;;3.40;;
15624;SDS011;7912;51.376;6.126;2023-02-28T08:46:11;3.60;;;3.30;;
15624;SDS011;7912;51.376;6.126;2023-02-28T08:48:40;4.23;;;3.30;;
15624;SDS011;7912;51.376;6.126;2023-02-28T08:51:09;3.40;;;2.93;;
15624;SDS011;7912;51.376;6.126;2023-02-28T08:53:44;4.33;;;3.20;;
15624;SDS011;7912;51.376;6.126;2023-02-28T08:56:13;3.30;;;3.00;;
15624;SDS011;7912;51.376;6.126;2023-02-28T08:58:43;3.70;;;2.93;;
15624;SDS011;7912;51.376;6.126;2023-02-28T09:01:15;3.67;;;2.70;;
15624;SDS011;7912;51.376;6.126;2023-02-28T09:03:49;3.80;;;3.03;;
15624;SDS011;7912;51.376;6.126;2023-02-28T09:06:18;3.47;;;2.90;;
15624;SDS011;7912;51.376;6.126;2023-02-28T09:08:48;5.50;;;3.20;;
15624;SDS011;7912;51.376;6.126;2023-02-28T09:11:16;3.60;;;3.07;;
15624;SDS011;7912;51.376;6.126;2023-02-28T09:13:45;3.10;;;2.80;;
15624;SDS011;7912;51.376;6.126;2023-02-28T09:16:13;3.93;;;2.90;;
15624;SDS011;7912;51.376;6.126;2023-02-28T09:18:46;2.70;;;2.50;;
15624;SDS011;7912;51.376;6.126;2023-02-28T09:21:15;3.30;;;3.00;;
15624;SDS011;7912;51.376;6.126;2023-02-28T09:23:45;4.67;;;2.90;;
15624;SDS011;7912;51.376;6.126;2023-02-28T09:26:19;3.00;;;2.70;;
15624;SDS011;7912;51.376;6.126;2023-02-28T09:29:04;2.93;;;2.67;;
15624;SDS011;7912;51.376;6.126;2023-02-28T09:31:31;3.17;;;2.80;;
15624;SDS011;7912;51.376;6.126;2023-02-28T09:33:58;3.63;;;3.17;;
15624;SDS011;7912;51.376;6.126;2023-02-28T09:36:26;3.20;;;2.90;;
15624;SDS011;7912;51.376;6.126;2023-02-28T09:39:09;5.93;;;2.87;;
15624;SDS011;7912;51.376;6.126;2023-02-28T09:41:41;2.90;;;2.50;;
15624;SDS011;7912;51.376;6.126;2023-02-28T09:50:12;2.63;;;2.33;;
15624;SDS011;7912;51.376;6.126;2023-02-28T09:52:56;2.37;;;2.17;;
15624;SDS011;7912;51.376;6.126;2023-02-28T09:55:37;2.60;;;2.40;;
15624;SDS011;7912;51.376;6.126;2023-02-28T09:58:32;2.40;;;2.20;;
15624;SDS011;7912;51.376;6.126;2023-02-28T10:01:37;3.33;;;2.50;;
15624;SDS011;7912;51.376;6.126;2023-02-28T10:04:39;4.37;;;3.00;;
15624;SDS011;7912;51.376;6.126;2023-02-28T10:07:25;2.70;;;2.20;;
15624;SDS011;7912;51.376;6.126;2023-02-28T10:13:16;2.30;;;2.10;;
15624;SDS011;7912;51.376;6.126;2023-02-28T10:16:07;2.10;;;1.90;;
15624;SDS011;7912;51.376;6.126;2023-02-28T10:18:49;2.20;;;1.93;;
15624;SDS011;7912;51.376;6.126;2023-02-28T10:21:38;3.27;;;2.30;;
15624;SDS011;7912;51.376;6.126;2023-02-28T10:24:21;3.03;;;2.20;;
15624;SDS011;7912;51.376;6.126;2023-02-28T10:27:01;3.00;;;2.20;;
15624;SDS011;7912;51.376;6.126;2023-02-28T10:29:47;3.30;;;2.50;;
15624;SDS011;7912;51.376;6.126;2023-02-28T10:32:18;3.30;;;2.40;;
15624;SDS011;7912;51.376;6.126;2023-02-28T10:35:06;3.87;;;2.80;;
15624;SDS011;7912;51.376;6.126;2023-02-28T10:37:44;2.70;;;2.50;;
15624;SDS011;7912;51.376;6.126;2023-02-28T10:43:18;2.77;;;2.40;;
15624;SDS011;7912;51.376;6.126;2023-02-28T10:45:57;2.37;;;2.10;;
15624;SDS011;7912;51.376;6.126;2023-02-28T10:48:45;2.27;;;2.07;;
15624;SDS011;7912;51.376;6.126;2023-02-28T10:51:27;3.00;;;2.20;;
15624;SDS011;7912;51.376;6.126;2023-02-28T10:54:04;2.07;;;1.87;;
15624;SDS011;7912;51.376;6.126;2023-02-28T10:56:40;2.50;;;2.30;;
15624;SDS011;7912;51.376;6.126;2023-02-28T11:01:43;2.40;;;2.20;;
15624;SDS011;7912;51.376;6.126;2023-02-28T11:04:23;2.97;;;2.67;;
15624;SDS011;7912;51.376;6.126;2023-02-28T11:07:03;3.47;;;2.47;;
15624;SDS011;7912;51.376;6.126;2023-02-28T11:09:51;2.70;;;2.10;;
15624;SDS011;7912;51.376;6.126;2023-02-28T11:12:23;2.47;;;2.27;;
15624;SDS011;7912;51.376;6.126;2023-02-28T11:20:49;2.60;;;2.30;;
15624;SDS011;7912;51.376;6.126;2023-02-28T11:23:18;2.97;;;2.40;;
15624;SDS011;7912;51.376;6.126;2023-02-28T11:25:49;2.60;;;2.40;;
15624;SDS011;7912;51.376;6.126;2023-02-28T11:28:30;2.93;;;2.30;;
15624;SDS011;7912;51.376;6.126;2023-02-28T11:33:41;2.83;;;2.40;;
15624;SDS011;7912;51.376;6.126;2023-02-28T11:39:11;2.83;;;2.30;;
15624;SDS011;7912;51.376;6.126;2023-02-28T11:44:21;3.73;;;2.40;;
15624;SDS011;7912;51.376;6.126;2023-02-28T11:53:02;3.30;;;2.43;;
15624;SDS011;7912;51.376;6.126;2023-02-28T11:58:54;5.67;;;2.80;;
15624;SDS011;7912;51.376;6.126;2023-02-28T12:05:08;2.37;;;2.17;;
15624;SDS011;7912;51.376;6.126;2023-02-28T12:08:03;2.40;;;2.13;;
15624;SDS011;7912;51.376;6.126;2023-02-28T12:13:37;2.70;;;2.50;;
15624;SDS011;7912;51.376;6.126;2023-02-28T12:25:13;3.30;;;2.60;;
15624;SDS011;7912;51.376;6.126;2023-02-28T12:28:20;3.00;;;2.47;;
15624;SDS011;7912;51.376;6.126;2023-02-28T12:31:01;3.00;;;2.30;;
15624;SDS011;7912;51.376;6.126;2023-02-28T12:33:51;2.73;;;2.53;;
15624;SDS011;7912;51.376;6.126;2023-02-28T12:36:34;2.50;;;2.30;;
15624;SDS011;7912;51.376;6.126;2023-02-28T12:39:06;3.03;;;2.43;;
15624;SDS011;7912;51.376;6.126;2023-02-28T12:41:43;3.13;;;2.20;;
15624;SDS011;7912;51.376;6.126;2023-02-28T12:44:36;2.63;;;2.20;;
15624;SDS011;7912;51.376;6.126;2023-02-28T12:47:13;3.43;;;2.07;;
15624;SDS011;7912;51.376;6.126;2023-02-28T12:49:52;3.40;;;2.40;;
15624;SDS011;7912;51.376;6.126;2023-02-28T12:52:39;3.10;;;2.10;;
15624;SDS011;7912;51.376;6.126;2023-02-28T12:55:31;2.53;;;2.20;;
15624;SDS011;7912;51.376;6.126;2023-02-28T12:58:26;2.73;;;2.40;;
15624;SDS011;7912;51.376;6.126;2023-02-28T13:10:46;3.30;;;2.57;;
15624;SDS011;7912;51.376;6.126;2023-02-28T13:13:24;3.23;;;2.27;;
15624;SDS011;7912;51.376;6.126;2023-02-28T13:16:06;3.30;;;2.43;;
15624;SDS011;7912;51.376;6.126;2023-02-28T13:21:26;3.50;;;2.40;;
15624;SDS011;7912;51.376;6.126;2023-02-28T13:24:01;2.90;;;2.60;;
15624;SDS011;7912;51.376;6.126;2023-02-28T13:34:33;2.70;;;2.50;;
15624;SDS011;7912;51.376;6.126;2023-02-28T13:43:07;2.63;;;2.30;;
15624;SDS011;7912;51.376;6.126;2023-02-28T13:45:35;3.73;;;2.60;;
15624;SDS011;7912;51.376;6.126;2023-02-28T13:50:54;3.37;;;2.60;;
15624;SDS011;7912;51.376;6.126;2023-02-28T13:53:33;3.60;;;2.57;;
15624;SDS011;7912;51.376;6.126;2023-02-28T13:56:27;3.90;;;2.70;;
15624;SDS011;7912;51.376;6.126;2023-02-28T14:05:38;2.80;;;2.60;;
15624;SDS011;7912;51.376;6.126;2023-02-28T14:10:48;3.10;;;2.80;;
15624;SDS011;7912;51.376;6.126;2023-02-28T14:13:45;3.53;;;2.70;;
15624;SDS011;7912;51.376;6.126;2023-02-28T14:19:25;2.80;;;2.60;;
15624;SDS011;7912;51.376;6.126;2023-02-28T14:27:48;2.40;;;2.20;;
15624;SDS011;7912;51.376;6.126;2023-02-28T14:30:43;3.10;;;2.80;;
15624;SDS011;7912;51.376;6.126;2023-02-28T14:36:32;3.20;;;2.93;;
15624;SDS011;7912;51.376;6.126;2023-02-28T14:41:38;3.20;;;2.90;;
15624;SDS011;7912;51.376;6.126;2023-02-28T14:44:21;4.33;;;2.73;;
15624;SDS011;7912;51.376;6.126;2023-02-28T14:46:55;4.07;;;2.57;;
15624;SDS011;7912;51.376;6.126;2023-02-28T14:49:31;3.30;;;3.00;;
15624;SDS011;7912;51.376;6.126;2023-02-28T14:52:19;2.97;;;2.63;;
15624;SDS011;7912;51.376;6.126;2023-02-28T14:55:00;3.30;;;3.00;;
15624;SDS011;7912;51.376;6.126;2023-02-28T14:57:49;3.47;;;3.17;;
15624;SDS011;7912;51.376;6.126;2023-02-28T15:00:24;3.00;;;2.80;;
15624;SDS011;7912;51.376;6.126;2023-02-28T15:02:55;4.57;;;3.00;;
15624;SDS011;7912;51.376;6.126;2023-02-28T15:08:01;3.27;;;2.93;;
15624;SDS011;7912;51.376;6.126;2023-02-28T15:16:10;3.07;;;2.77;;
15624;SDS011;7912;51.376;6.126;2023-02-28T15:18:49;5.33;;;3.20;;
15624;SDS011;7912;51.376;6.126;2023-02-28T15:21:33;4.13;;;3.27;;
15624;SDS011;7912;51.376;6.126;2023-02-28T15:24:18;3.67;;;3.37;;
15624;SDS011;7912;51.376;6.126;2023-02-28T15:26:55;4.23;;;3.50;;
15624;SDS011;7912;51.376;6.126;2023-02-28T15:29:33;3.53;;;3.23;;
15624;SDS011;7912;51.376;6.126;2023-02-28T15:35:45;3.50;;;3.20;;
15624;SDS011;7912;51.376;6.126;2023-02-28T15:40:55;3.63;;;3.33;;
15624;SDS011;7912;51.376;6.126;2023-02-28T15:43:36;3.47;;;3.17;;
15624;SDS011;7912;51.376;6.126;2023-02-28T15:48:43;3.60;;;3.23;;
15624;SDS011;7912;51.376;6.126;2023-02-28T15:51:33;4.20;;;3.63;;
15624;SDS011;7912;51.376;6.126;2023-02-28T15:54:05;3.47;;;3.17;;
15624;SDS011;7912;51.376;6.126;2023-02-28T15:56:44;4.67;;;3.40;;
15624;SDS011;7912;51.376;6.126;2023-02-28T15:59:18;3.30;;;3.00;;
15624;SDS011;7912;51.376;6.126;2023-02-28T16:02:12;3.33;;;3.03;;
15624;SDS011;7912;51.376;6.126;2023-02-28T16:04:55;3.90;;;3.00;;
15624;SDS011;7912;51.376;6.126;2023-02-28T16:07:25;2.83;;;2.63;;
15624;SDS011;7912;51.376;6.126;2023-02-28T16:09:53;3.33;;;3.03;;
15624;SDS011;7912;51.376;6.126;2023-02-28T16:12:22;3.13;;;2.83;;
15624;SDS011;7912;51.376;6.126;2023-02-28T16:14:56;3.27;;;2.93;;
15624;SDS011;7912;51.376;6.126;2023-02-28T16:17:30;3.33;;;3.03;;
15624;SDS011;7912;51.376;6.126;2023-02-28T16:20:05;4.90;;;3.60;;
15624;SDS011;7912;51.376;6.126;2023-02-28T16:22:44;3.73;;;3.13;;
15624;SDS011;7912;51.376;6.126;2023-02-28T16:25:13;4.60;;;3.43;;
15624;SDS011;7912;51.376;6.126;2023-02-28T16:27:52;5.97;;;4.20;;
15624;SDS011;7912;51.376;6.126;2023-02-28T16:33:07;4.27;;;3.80;;
15624;SDS011;7912;51.376;6.126;2023-02-28T16:35:35;3.90;;;3.40;;
15624;SDS011;7912;51.376;6.126;2023-02-28T16:38:03;3.40;;;3.03;;
15624;SDS011;7912;51.376;6.126;2023-02-28T16:40:33;3.90;;;2.90;;
15624;SDS011;7912;51.376;6.126;2023-02-28T16:43:04;3.03;;;2.83;;
15624;SDS011;7912;51.376;6.126;2023-02-28T16:45:39;3.73;;;3.00;;
15624;SDS011;7912;51.376;6.126;2023-02-28T16:48:08;4.10;;;3.07;;
15624;SDS011;7912;51.376;6.126;2023-02-28T16:54:06;3.70;;;3.30;;
15624;SDS011;7912;51.376;6.126;2023-02-28T16:56:33;3.70;;;3.27;;
15624;SDS011;7912;51.376;6.126;2023-02-28T16:59:01;3.60;;;3.30;;
15624;SDS011;7912;51.376;6.126;2023-02-28T17:01:29;3.60;;;3.30;;
15624;SDS011;7912;51.376;6.126;2023-02-28T17:03:58;3.63;;;3.10;;
15624;SDS011;7912;51.376;6.126;2023-02-28T17:06:26;3.30;;;3.00;;
15624;SDS011;7912;51.376;6.126;2023-02-28T17:08:56;3.30;;;3.00;;
15624;SDS011;7912;51.376;6.126;2023-02-28T17:11:25;3.37;;;3.10;;
15624;SDS011;7912;51.376;6.126;2023-02-28T17:13:53;3.43;;;3.00;;
15624;SDS011;7912;51.376;6.126;2023-02-28T17:16:31;3.43;;;3.00;;
15624;SDS011;7912;51.376;6.126;2023-02-28T17:21:50;3.40;;;3.10;;
15624;SDS011;7912;51.376;6.126;2023-02-28T17:24:18;4.53;;;3.40;;
15624;SDS011;7912;51.376;6.126;2023-02-28T17:30:02;3.90;;;3.60;;
15624;SDS011;7912;51.376;6.126;2023-02-28T17:32:40;5.83;;;3.77;;
15624;SDS011;7912;51.376;6.126;2023-02-28T17:35:08;4.03;;;3.73;;
15624;SDS011;7912;51.376;6.126;2023-02-28T17:37:35;5.23;;;3.57;;
15624;SDS011;7912;51.376;6.126;2023-02-28T17:40:03;3.90;;;3.53;;
15624;SDS011;7912;51.376;6.126;2023-02-28T17:42:32;3.70;;;3.40;;
15624;SDS011;7912;51.376;6.126;2023-02-28T17:45:00;4.27;;;3.87;;
15624;SDS011;7912;51.376;6.126;2023-02-28T17:47:28;4.43;;;3.63;;
15624;SDS011;7912;51.376;6.126;2023-02-28T17:49:56;4.40;;;4.00;;
15624;SDS011;7912;51.376;6.126;2023-02-28T17:52:23;4.50;;;3.90;;
15624;SDS011;7912;51.376;6.126;2023-02-28T17:54:50;4.00;;;3.60;;
15624;SDS011;7912;51.376;6.126;2023-02-28T17:57:17;4.10;;;3.70;;
15624;SDS011;7912;51.376;6.126;2023-02-28T17:59:46;5.17;;;4.07;;
15624;SDS011;7912;51.376;6.126;2023-02-28T18:02:14;5.07;;;4.00;;
15624;SDS011;7912;51.376;6.126;2023-02-28T18:04:42;4.67;;;4.10;;
15624;SDS011;7912;51.376;6.126;2023-02-28T18:07:10;5.50;;;4.07;;
15624;SDS011;7912;51.376;6.126;2023-02-28T18:09:38;4.27;;;3.87;;
15624;SDS011;7912;51.376;6.126;2023-02-28T18:12:05;5.03;;;4.57;;
15624;SDS011;7912;51.376;6.126;2023-02-28T18:14:33;5.07;;;4.60;;
15624;SDS011;7912;51.376;6.126;2023-02-28T18:17:00;5.03;;;4.60;;
15624;SDS011;7912;51.376;6.126;2023-02-28T18:19:27;4.67;;;4.27;;
15624;SDS011;7912;51.376;6.126;2023-02-28T18:21:54;4.83;;;4.37;;
15624;SDS011;7912;51.376;6.126;2023-02-28T18:24:23;4.47;;;4.07;;
15624;SDS011;7912;51.376;6.126;2023-02-28T18:26:50;5.73;;;4.30;;
15624;SDS011;7912;51.376;6.126;2023-02-28T18:29:19;4.20;;;3.80;;
15624;SDS011;7912;51.376;6.126;2023-02-28T18:31:49;5.67;;;4.30;;
15624;SDS011;7912;51.376;6.126;2023-02-28T18:34:19;5.00;;;4.47;;
15624;SDS011;7912;51.376;6.126;2023-02-28T18:36:47;5.10;;;4.23;;